Yahata Maru — JL6477 — position and weather

sailwx.info

Track history (hours):
 
Tides and Currents Weather Stations Pressure Air Temp Water Temp Dewpoint Dewpoint Depression Visibility Wind Speed Wind Dir Waves Ship Positions

Yahata Maru

Last reported at 2016-Feb-08 01:33 UTC. Time now 2016-Feb-08 02:03 UTC.
Position N 35°09' E 139°43'.

Length 149 m; draft 4.7 m.

Type: Other ship. MMSI: 431400594.

Date/timePositionNaut miles runAvg speedWind from/ knotsBaromVisibWave heightAir tempDewpointWater temp
2016-Feb-08 01:33N 35°09' E 139°43'9 9.3
2016-Feb-08 00:33N 35°18' E 139°44'9 9.4
2016-Feb-07 23:33N 35°27' E 139°43'1 0.5
2016-Feb-07 22:31N 35°28' E 139°43'0 0.0
2016-Feb-07 21:31N 35°28' E 139°43'0 0.0
2016-Feb-07 20:31N 35°28' E 139°43'0 0.0
2016-Feb-07 19:33N 35°28' E 139°43'5 5.4
2016-Feb-07 18:33N 35°29' E 139°49'9 9.4
2016-Feb-07 17:33N 35°33' E 139°59'6 6.3
2016-Feb-07 16:33N 35°33' E 140°07'0 0.0
2016-Feb-07 15:30N 35°33' E 140°07'0 0.0
2016-Feb-07 14:33N 35°33' E 140°07'0 0.0
2016-Feb-07 13:33N 35°33' E 140°07'0 0.0
2016-Feb-07 12:33N 35°33' E 140°07'0 0.0
2016-Feb-07 11:33N 35°33' E 140°07'0 0.0
2016-Feb-07 10:33N 35°33' E 140°07'0 0.0
2016-Feb-07 09:33N 35°33' E 140°07'0 0.0
2016-Feb-07 08:33N 35°33' E 140°07'0 0.0
2016-Feb-07 07:30N 35°33' E 140°07'0 0.0
2016-Feb-07 06:27N 35°33' E 140°07'0 0.0
2016-Feb-07 05:33N 35°33' E 140°07'0 0.0
2016-Feb-07 04:30N 35°33' E 140°07'0 0.0
2016-Feb-07 03:33N 35°33' E 140°07'0 0.0
2016-Feb-07 02:33N 35°33' E 140°07'0 0.0
2016-Feb-07 01:33N 35°33' E 140°07'0 0.0
2016-Feb-07 00:33N 35°33' E 140°07'0 0.0
2016-Feb-06 23:27N 35°33' E 140°07'0 0.0
2016-Feb-06 22:33N 35°33' E 140°07'0 0.0
2016-Feb-06 21:33N 35°33' E 140°07'0 0.0
2016-Feb-06 20:30N 35°33' E 140°07'0 0.0
2016-Feb-06 19:33N 35°33' E 140°07'0 0.0
2016-Feb-06 18:33N 35°33' E 140°07'0 0.0
2016-Feb-06 17:33N 35°33' E 140°07'0 0.0
2016-Feb-06 16:33N 35°33' E 140°07'0 0.0
2016-Feb-06 15:33N 35°33' E 140°07'0 0.0
2016-Feb-06 14:33N 35°33' E 140°07'0 0.0
2016-Feb-06 13:33N 35°33' E 140°07'0 0.0
2016-Feb-06 12:33N 35°33' E 140°07'0 0.0
2016-Feb-06 11:33N 35°33' E 140°07'0 0.0
2016-Feb-06 10:33N 35°33' E 140°07'5 4.8
2016-Feb-06 09:33N 35°33' E 140°01'7 6.7
2016-Feb-06 08:33N 35°30' E 139°54'7 7.5
2016-Feb-06 07:33N 35°26' E 139°46'7 6.7
2016-Feb-06 06:33N 35°23' E 139°38'0 0.0
2016-Feb-06 05:33N 35°23' E 139°38'0 0.0
2016-Feb-06 04:30N 35°23' E 139°38'3 3.1
2016-Feb-06 03:33N 35°22' E 139°42'9 9.3
2016-Feb-06 02:33N 35°14' E 139°47'9 9.1
2016-Feb-06 01:33N 35°05' E 139°44'241 6.0
2016-Feb-04 09:21N 34°10' E 134°59'11 9.5
2016-Feb-04 08:14N 34°21' E 134°60'6 9.6
2016-Feb-04 07:33N 34°26' E 135°05'10 9.7
2016-Feb-04 06:33N 34°32' E 135°14'9 9.0
2016-Feb-04 05:33N 34°36' E 135°24'2 1.8
2016-Feb-04 04:30N 34°35' E 135°26'3 3.0
2016-Feb-04 03:33N 34°36' E 135°22'10 9.7
2016-Feb-04 02:33N 34°35' E 135°11'1010.2
2016-Feb-04 01:33N 34°37' E 134°59'  
2016-Feb-01 20:17N 34°35' E 134°51'810.4
2016-Feb-01 19:32N 34°38' E 134°60'9 9.6
2016-Feb-01 18:33N 34°36' E 135°11'8 8.2
2016-Feb-01 17:33N 34°41' E 135°19'2 2.3
2016-Feb-01 16:30N 34°43' E 135°21'0 0.0
2016-Feb-01 15:30N 34°43' E 135°21'0 0.0
2016-Feb-01 14:30N 34°43' E 135°21'0 0.0
2016-Feb-01 13:24N 34°43' E 135°21'0 0.0
2016-Feb-01 12:30N 34°43' E 135°21'0 0.0
2016-Feb-01 11:30N 34°43' E 135°21'0 0.0
2016-Feb-01 10:30N 34°43' E 135°21'0 0.0
2016-Feb-01 09:24N 34°43' E 135°21'0 0.0
2016-Feb-01 08:21N 34°43' E 135°21'3 3.4
2016-Feb-01 07:33N 34°41' E 135°19'9 8.9
2016-Feb-01 06:33N 34°33' E 135°15'10 9.7
2016-Feb-01 05:33N 34°25' E 135°07'10 9.7
2016-Feb-01 04:33N 34°18' E 134°60'1010.0
2016-Feb-01 03:33N 34°08' E 134°60'181 4.7
2016-Jan-30 13:06N 34°34' E 138°37'51 9.1
2016-Jan-30 07:30N 35°01' E 139°29'10 9.6
2016-Jan-30 06:31N 35°06' E 139°39'9 9.7
2016-Jan-30 05:33N 35°13' E 139°46'9 9.5
2016-Jan-30 04:34N 35°22' E 139°42'6 5.6
2016-Jan-30 03:32N 35°28' E 139°43'0 0.0
2016-Jan-30 02:32N 35°28' E 139°43'0 0.0
2016-Jan-30 01:32N 35°28' E 139°43'0 0.0
2016-Jan-30 00:32N 35°28' E 139°43'0 0.1
2016-Jan-29 23:33N 35°28' E 139°43'5 5.4
2016-Jan-29 22:33N 35°28' E 139°49'9 9.0
2016-Jan-29 21:34N 35°33' E 139°58'7 6.8
2016-Jan-29 20:33N 35°33' E 140°07'0 0.1
2016-Jan-29 19:32N 35°33' E 140°07'0 0.0
2016-Jan-29 18:26N 35°33' E 140°07'0 0.0
2016-Jan-29 17:32N 35°33' E 140°07'0 0.0
2016-Jan-29 16:32N 35°33' E 140°07'0 0.0
2016-Jan-29 15:29N 35°33' E 140°07'0 0.0
2016-Jan-29 14:32N 35°33' E 140°07'0 0.0
2016-Jan-29 13:32N 35°33' E 140°07'0 0.0
2016-Jan-29 12:23N 35°33' E 140°07'0 0.0
2016-Jan-29 11:20N 35°33' E 140°07'0 0.0
2016-Jan-29 10:23N 35°33' E 140°07'0 0.0
2016-Jan-29 09:29N 35°33' E 140°07'0 0.0
2016-Jan-29 08:32N 35°33' E 140°07'0 0.0
2016-Jan-29 07:32N 35°33' E 140°07'0 0.0
2016-Jan-29 06:32N 35°33' E 140°07'0 0.0
2016-Jan-29 05:32N 35°33' E 140°07'0 0.0
2016-Jan-29 04:32N 35°33' E 140°07'0 0.0
2016-Jan-29 03:32N 35°33' E 140°07'0 0.0
2016-Jan-29 02:32N 35°33' E 140°07'  
Track history (hours):
 
Tides and Currents Weather Stations Pressure Air Temp Water Temp Dewpoint Dewpoint Depression Visibility Wind Speed Wind Dir Waves Ship Positions

Yahata Maru

Last reported at 2016-Feb-08 01:33 UTC. Time now 2016-Feb-08 02:03 UTC.
Position N 35°09' E 139°43'.

Length 149 m; draft 4.7 m.

Type: Other ship. MMSI: 431400594.

Date/timePositionNaut miles runAvg speedWind from/ knotsBaromVisibWave heightAir tempDewpointWater temp
2016-Feb-08 01:33N 35°09' E 139°43'9 9.3
2016-Feb-08 00:33N 35°18' E 139°44'9 9.4
2016-Feb-07 23:33N 35°27' E 139°43'1 0.5
2016-Feb-07 22:31N 35°28' E 139°43'0 0.0
2016-Feb-07 21:31N 35°28' E 139°43'0 0.0
2016-Feb-07 20:31N 35°28' E 139°43'0 0.0
2016-Feb-07 19:33N 35°28' E 139°43'5 5.4
2016-Feb-07 18:33N 35°29' E 139°49'9 9.4
2016-Feb-07 17:33N 35°33' E 139°59'6 6.3
2016-Feb-07 16:33N 35°33' E 140°07'0 0.0
2016-Feb-07 15:30N 35°33' E 140°07'0 0.0
2016-Feb-07 14:33N 35°33' E 140°07'0 0.0
2016-Feb-07 13:33N 35°33' E 140°07'0 0.0
2016-Feb-07 12:33N 35°33' E 140°07'0 0.0
2016-Feb-07 11:33N 35°33' E 140°07'0 0.0
2016-Feb-07 10:33N 35°33' E 140°07'0 0.0
2016-Feb-07 09:33N 35°33' E 140°07'0 0.0
2016-Feb-07 08:33N 35°33' E 140°07'0 0.0
2016-Feb-07 07:30N 35°33' E 140°07'0 0.0
2016-Feb-07 06:27N 35°33' E 140°07'0 0.0
2016-Feb-07 05:33N 35°33' E 140°07'0 0.0
2016-Feb-07 04:30N 35°33' E 140°07'0 0.0
2016-Feb-07 03:33N 35°33' E 140°07'0 0.0
2016-Feb-07 02:33N 35°33' E 140°07'0 0.0
2016-Feb-07 01:33N 35°33' E 140°07'0 0.0
2016-Feb-07 00:33N 35°33' E 140°07'0 0.0
2016-Feb-06 23:27N 35°33' E 140°07'0 0.0
2016-Feb-06 22:33N 35°33' E 140°07'0 0.0
2016-Feb-06 21:33N 35°33' E 140°07'0 0.0
2016-Feb-06 20:30N 35°33' E 140°07'0 0.0
2016-Feb-06 19:33N 35°33' E 140°07'0 0.0
2016-Feb-06 18:33N 35°33' E 140°07'0 0.0
2016-Feb-06 17:33N 35°33' E 140°07'0 0.0
2016-Feb-06 16:33N 35°33' E 140°07'0 0.0
2016-Feb-06 15:33N 35°33' E 140°07'0 0.0
2016-Feb-06 14:33N 35°33' E 140°07'0 0.0
2016-Feb-06 13:33N 35°33' E 140°07'0 0.0
2016-Feb-06 12:33N 35°33' E 140°07'0 0.0
2016-Feb-06 11:33N 35°33' E 140°07'0 0.0
2016-Feb-06 10:33N 35°33' E 140°07'5 4.8
2016-Feb-06 09:33N 35°33' E 140°01'7 6.7
2016-Feb-06 08:33N 35°30' E 139°54'7 7.5
2016-Feb-06 07:33N 35°26' E 139°46'7 6.7
2016-Feb-06 06:33N 35°23' E 139°38'0 0.0
2016-Feb-06 05:33N 35°23' E 139°38'0 0.0
2016-Feb-06 04:30N 35°23' E 139°38'3 3.1
2016-Feb-06 03:33N 35°22' E 139°42'9 9.3
2016-Feb-06 02:33N 35°14' E 139°47'9 9.1
2016-Feb-06 01:33N 35°05' E 139°44'241 6.0
2016-Feb-04 09:21N 34°10' E 134°59'11 9.5
2016-Feb-04 08:14N 34°21' E 134°60'6 9.6
2016-Feb-04 07:33N 34°26' E 135°05'10 9.7
2016-Feb-04 06:33N 34°32' E 135°14'9 9.0
2016-Feb-04 05:33N 34°36' E 135°24'2 1.8
2016-Feb-04 04:30N 34°35' E 135°26'3 3.0
2016-Feb-04 03:33N 34°36' E 135°22'10 9.7
2016-Feb-04 02:33N 34°35' E 135°11'1010.2
2016-Feb-04 01:33N 34°37' E 134°59'  
2016-Feb-01 20:17N 34°35' E 134°51'810.4
2016-Feb-01 19:32N 34°38' E 134°60'9 9.6
2016-Feb-01 18:33N 34°36' E 135°11'8 8.2
2016-Feb-01 17:33N 34°41' E 135°19'2 2.3
2016-Feb-01 16:30N 34°43' E 135°21'0 0.0
2016-Feb-01 15:30N 34°43' E 135°21'0 0.0
2016-Feb-01 14:30N 34°43' E 135°21'0 0.0
2016-Feb-01 13:24N 34°43' E 135°21'0 0.0
2016-Feb-01 12:30N 34°43' E 135°21'0 0.0
2016-Feb-01 11:30N 34°43' E 135°21'0 0.0
2016-Feb-01 10:30N 34°43' E 135°21'0 0.0
2016-Feb-01 09:24N 34°43' E 135°21'0 0.0
2016-Feb-01 08:21N 34°43' E 135°21'3 3.4
2016-Feb-01 07:33N 34°41' E 135°19'9 8.9
2016-Feb-01 06:33N 34°33' E 135°15'10 9.7
2016-Feb-01 05:33N 34°25' E 135°07'10 9.7
2016-Feb-01 04:33N 34°18' E 134°60'1010.0
2016-Feb-01 03:33N 34°08' E 134°60'181 4.7
2016-Jan-30 13:06N 34°34' E 138°37'51 9.1
2016-Jan-30 07:30N 35°01' E 139°29'10 9.6
2016-Jan-30 06:31N 35°06' E 139°39'9 9.7
2016-Jan-30 05:33N 35°13' E 139°46'9 9.5
2016-Jan-30 04:34N 35°22' E 139°42'6 5.6
2016-Jan-30 03:32N 35°28' E 139°43'0 0.0
2016-Jan-30 02:32N 35°28' E 139°43'0 0.0
2016-Jan-30 01:32N 35°28' E 139°43'0 0.0
2016-Jan-30 00:32N 35°28' E 139°43'0 0.1
2016-Jan-29 23:33N 35°28' E 139°43'5 5.4
2016-Jan-29 22:33N 35°28' E 139°49'9 9.0
2016-Jan-29 21:34N 35°33' E 139°58'7 6.8
2016-Jan-29 20:33N 35°33' E 140°07'0 0.1
2016-Jan-29 19:32N 35°33' E 140°07'0 0.0
2016-Jan-29 18:26N 35°33' E 140°07'0 0.0
2016-Jan-29 17:32N 35°33' E 140°07'0 0.0
2016-Jan-29 16:32N 35°33' E 140°07'0 0.0
2016-Jan-29 15:29N 35°33' E 140°07'0 0.0
2016-Jan-29 14:32N 35°33' E 140°07'0 0.0
2016-Jan-29 13:32N 35°33' E 140°07'0 0.0
2016-Jan-29 12:23N 35°33' E 140°07'0 0.0
2016-Jan-29 11:20N 35°33' E 140°07'0 0.0
2016-Jan-29 10:23N 35°33' E 140°07'0 0.0
2016-Jan-29 09:29N 35°33' E 140°07'0 0.0
2016-Jan-29 08:32N 35°33' E 140°07'0 0.0
2016-Jan-29 07:32N 35°33' E 140°07'0 0.0
2016-Jan-29 06:32N 35°33' E 140°07'0 0.0
2016-Jan-29 05:32N 35°33' E 140°07'0 0.0
2016-Jan-29 04:32N 35°33' E 140°07'0 0.0
2016-Jan-29 03:32N 35°33' E 140°07'0 0.0
2016-Jan-29 02:32N 35°33' E 140°07'  

Dump ship's entire track history